sensor_id;sensor_type;location;lat;lon;timestamp;P1;durP1;ratioP1;P2;durP2;ratioP2
26702;SDS011;14316;51.074;3.704;2023-02-19T00:01:41;20.92;;;14.43;;
26702;SDS011;14316;51.074;3.704;2023-02-19T00:04:11;19.42;;;12.15;;
26702;SDS011;14316;51.074;3.704;2023-02-19T00:06:38;16.40;;;11.45;;
26702;SDS011;14316;51.074;3.704;2023-02-19T00:09:05;18.67;;;12.60;;
26702;SDS011;14316;51.074;3.704;2023-02-19T00:11:32;16.92;;;10.05;;
26702;SDS011;14316;51.074;3.704;2023-02-19T00:14:00;18.45;;;11.48;;
26702;SDS011;14316;51.074;3.704;2023-02-19T00:16:27;11.65;;;7.95;;
26702;SDS011;14316;51.074;3.704;2023-02-19T00:18:55;15.90;;;9.25;;
26702;SDS011;14316;51.074;3.704;2023-02-19T00:21:22;16.88;;;8.52;;
26702;SDS011;14316;51.074;3.704;2023-02-19T00:23:50;14.88;;;9.25;;
26702;SDS011;14316;51.074;3.704;2023-02-19T00:26:27;14.55;;;7.75;;
26702;SDS011;14316;51.074;3.704;2023-02-19T00:28:54;9.25;;;5.68;;
26702;SDS011;14316;51.074;3.704;2023-02-19T00:31:25;16.67;;;7.00;;
26702;SDS011;14316;51.074;3.704;2023-02-19T00:33:53;15.63;;;8.33;;
26702;SDS011;14316;51.074;3.704;2023-02-19T00:36:21;18.60;;;8.10;;
26702;SDS011;14316;51.074;3.704;2023-02-19T00:38:48;12.45;;;7.13;;
26702;SDS011;14316;51.074;3.704;2023-02-19T00:41:17;12.88;;;6.80;;
26702;SDS011;14316;51.074;3.704;2023-02-19T00:46:19;12.52;;;6.13;;
26702;SDS011;14316;51.074;3.704;2023-02-19T00:48:49;10.10;;;5.07;;
26702;SDS011;14316;51.074;3.704;2023-02-19T00:51:18;9.68;;;5.00;;
26702;SDS011;14316;51.074;3.704;2023-02-19T00:56:55;13.43;;;5.82;;
26702;SDS011;14316;51.074;3.704;2023-02-19T00:59:21;8.95;;;5.50;;
26702;SDS011;14316;51.074;3.704;2023-02-19T01:01:47;14.07;;;5.18;;
26702;SDS011;14316;51.074;3.704;2023-02-19T01:04:13;14.65;;;4.60;;
26702;SDS011;14316;51.074;3.704;2023-02-19T01:06:41;13.88;;;6.07;;
26702;SDS011;14316;51.074;3.704;2023-02-19T01:09:19;10.93;;;4.70;;
26702;SDS011;14316;51.074;3.704;2023-02-19T01:11:46;15.73;;;5.20;;
26702;SDS011;14316;51.074;3.704;2023-02-19T01:14:12;7.00;;;3.78;;
26702;SDS011;14316;51.074;3.704;2023-02-19T01:17:05;17.23;;;5.53;;
26702;SDS011;14316;51.074;3.704;2023-02-19T01:19:30;9.68;;;4.88;;
26702;SDS011;14316;51.074;3.704;2023-02-19T01:21:56;10.82;;;4.35;;
26702;SDS011;14316;51.074;3.704;2023-02-19T01:24:22;12.93;;;5.65;;
26702;SDS011;14316;51.074;3.704;2023-02-19T01:26:48;10.07;;;4.40;;
26702;SDS011;14316;51.074;3.704;2023-02-19T01:29:14;11.05;;;4.38;;
26702;SDS011;14316;51.074;3.704;2023-02-19T01:31:40;14.90;;;4.18;;
26702;SDS011;14316;51.074;3.704;2023-02-19T01:34:06;15.00;;;5.07;;
26702;SDS011;14316;51.074;3.704;2023-02-19T01:36:34;10.55;;;4.10;;
26702;SDS011;14316;51.074;3.704;2023-02-19T01:39:02;11.55;;;3.85;;
26702;SDS011;14316;51.074;3.704;2023-02-19T01:41:31;12.68;;;4.72;;
26702;SDS011;14316;51.074;3.704;2023-02-19T01:44:00;15.60;;;4.55;;
26702;SDS011;14316;51.074;3.704;2023-02-19T01:46:52;10.68;;;3.90;;
26702;SDS011;14316;51.074;3.704;2023-02-19T01:49:31;10.48;;;3.60;;
26702;SDS011;14316;51.074;3.704;2023-02-19T01:52:03;11.55;;;3.53;;
26702;SDS011;14316;51.074;3.704;2023-02-19T01:54:35;14.95;;;4.35;;
26702;SDS011;14316;51.074;3.704;2023-02-19T01:57:04;15.52;;;4.53;;
26702;SDS011;14316;51.074;3.704;2023-02-19T01:59:35;11.02;;;3.47;;
26702;SDS011;14316;51.074;3.704;2023-02-19T02:02:02;7.80;;;3.70;;
26702;SDS011;14316;51.074;3.704;2023-02-19T02:04:29;8.43;;;3.58;;
26702;SDS011;14316;51.074;3.704;2023-02-19T02:06:57;9.15;;;3.58;;
26702;SDS011;14316;51.074;3.704;2023-02-19T02:09:26;9.93;;;3.40;;
26702;SDS011;14316;51.074;3.704;2023-02-19T02:12:12;14.52;;;4.43;;
26702;SDS011;14316;51.074;3.704;2023-02-19T02:14:44;12.70;;;3.72;;
26702;SDS011;14316;51.074;3.704;2023-02-19T02:22:27;14.88;;;4.80;;
26702;SDS011;14316;51.074;3.704;2023-02-19T02:30:55;13.65;;;3.83;;
26702;SDS011;14316;51.074;3.704;2023-02-19T02:33:40;14.05;;;3.45;;
26702;SDS011;14316;51.074;3.704;2023-02-19T02:36:20;15.05;;;3.60;;
26702;SDS011;14316;51.074;3.704;2023-02-19T02:38:51;13.20;;;3.90;;
26702;SDS011;14316;51.074;3.704;2023-02-19T02:41:18;11.48;;;3.15;;
26702;SDS011;14316;51.074;3.704;2023-02-19T02:43:44;15.55;;;3.88;;
26702;SDS011;14316;51.074;3.704;2023-02-19T02:46:11;11.30;;;3.58;;
26702;SDS011;14316;51.074;3.704;2023-02-19T02:48:45;14.13;;;3.65;;
26702;SDS011;14316;51.074;3.704;2023-02-19T02:51:20;11.40;;;4.03;;
26702;SDS011;14316;51.074;3.704;2023-02-19T02:56:49;13.00;;;3.58;;
26702;SDS011;14316;51.074;3.704;2023-02-19T02:59:17;13.85;;;3.95;;
26702;SDS011;14316;51.074;3.704;2023-02-19T03:01:51;13.23;;;4.28;;
26702;SDS011;14316;51.074;3.704;2023-02-19T03:07:35;16.15;;;3.35;;
26702;SDS011;14316;51.074;3.704;2023-02-19T03:10:04;14.25;;;3.97;;
26702;SDS011;14316;51.074;3.704;2023-02-19T03:12:34;12.95;;;3.30;;
26702;SDS011;14316;51.074;3.704;2023-02-19T03:15:21;11.43;;;2.90;;
26702;SDS011;14316;51.074;3.704;2023-02-19T03:18:11;11.65;;;3.17;;
26702;SDS011;14316;51.074;3.704;2023-02-19T03:20:56;17.42;;;3.88;;
26702;SDS011;14316;51.074;3.704;2023-02-19T03:23:24;12.25;;;3.50;;
26702;SDS011;14316;51.074;3.704;2023-02-19T03:26:12;17.63;;;3.33;;
26702;SDS011;14316;51.074;3.704;2023-02-19T03:28:39;11.52;;;3.40;;
26702;SDS011;14316;51.074;3.704;2023-02-19T03:31:27;12.25;;;3.20;;
26702;SDS011;14316;51.074;3.704;2023-02-19T03:33:56;14.05;;;3.38;;
26702;SDS011;14316;51.074;3.704;2023-02-19T03:36:26;16.27;;;3.22;;
26702;SDS011;14316;51.074;3.704;2023-02-19T03:39:01;13.57;;;3.72;;
26702;SDS011;14316;51.074;3.704;2023-02-19T03:46:35;14.38;;;3.60;;
26702;SDS011;14316;51.074;3.704;2023-02-19T03:52:22;12.23;;;3.25;;
26702;SDS011;14316;51.074;3.704;2023-02-19T04:01:08;16.75;;;3.30;;
26702;SDS011;14316;51.074;3.704;2023-02-19T04:03:48;14.52;;;3.70;;
26702;SDS011;14316;51.074;3.704;2023-02-19T04:06:25;16.92;;;3.00;;
26702;SDS011;14316;51.074;3.704;2023-02-19T04:08:53;12.65;;;3.38;;
26702;SDS011;14316;51.074;3.704;2023-02-19T04:11:22;18.98;;;4.05;;
26702;SDS011;14316;51.074;3.704;2023-02-19T04:13:53;12.50;;;3.47;;
26702;SDS011;14316;51.074;3.704;2023-02-19T04:16:36;16.63;;;3.67;;
26702;SDS011;14316;51.074;3.704;2023-02-19T04:19:07;14.65;;;3.65;;
26702;SDS011;14316;51.074;3.704;2023-02-19T04:21:35;19.05;;;4.13;;
26702;SDS011;14316;51.074;3.704;2023-02-19T04:24:05;16.35;;;3.75;;
26702;SDS011;14316;51.074;3.704;2023-02-19T04:26:36;17.80;;;3.70;;
26702;SDS011;14316;51.074;3.704;2023-02-19T04:29:02;11.30;;;2.95;;
26702;SDS011;14316;51.074;3.704;2023-02-19T04:31:29;10.82;;;2.80;;
26702;SDS011;14316;51.074;3.704;2023-02-19T04:33:56;11.23;;;2.47;;
26702;SDS011;14316;51.074;3.704;2023-02-19T04:36:21;9.52;;;2.33;;
26702;SDS011;14316;51.074;3.704;2023-02-19T04:38:47;16.50;;;3.60;;
26702;SDS011;14316;51.074;3.704;2023-02-19T04:41:13;12.20;;;3.55;;
26702;SDS011;14316;51.074;3.704;2023-02-19T04:43:39;12.70;;;2.72;;
26702;SDS011;14316;51.074;3.704;2023-02-19T04:46:05;15.60;;;3.22;;
26702;SDS011;14316;51.074;3.704;2023-02-19T04:48:31;15.40;;;3.78;;
26702;SDS011;14316;51.074;3.704;2023-02-19T04:50:56;18.17;;;3.83;;
26702;SDS011;14316;51.074;3.704;2023-02-19T04:53:23;15.10;;;3.35;;
26702;SDS011;14316;51.074;3.704;2023-02-19T04:55:49;12.05;;;3.03;;
26702;SDS011;14316;51.074;3.704;2023-02-19T04:58:17;13.25;;;3.20;;
26702;SDS011;14316;51.074;3.704;2023-02-19T05:00:43;11.00;;;2.45;;
26702;SDS011;14316;51.074;3.704;2023-02-19T05:03:09;12.25;;;2.72;;
26702;SDS011;14316;51.074;3.704;2023-02-19T05:05:35;13.10;;;3.50;;
26702;SDS011;14316;51.074;3.704;2023-02-19T05:08:00;9.50;;;2.33;;
26702;SDS011;14316;51.074;3.704;2023-02-19T05:10:26;12.65;;;3.00;;
26702;SDS011;14316;51.074;3.704;2023-02-19T05:12:53;14.30;;;3.10;;
26702;SDS011;14316;51.074;3.704;2023-02-19T05:15:19;10.57;;;2.67;;
26702;SDS011;14316;51.074;3.704;2023-02-19T05:17:45;15.70;;;2.90;;
26702;SDS011;14316;51.074;3.704;2023-02-19T05:20:11;13.57;;;3.33;;
26702;SDS011;14316;51.074;3.704;2023-02-19T05:22:37;11.50;;;3.38;;
26702;SDS011;14316;51.074;3.704;2023-02-19T05:25:03;12.70;;;3.20;;
26702;SDS011;14316;51.074;3.704;2023-02-19T05:27:29;11.10;;;2.95;;
26702;SDS011;14316;51.074;3.704;2023-02-19T05:29:56;15.55;;;3.13;;
26702;SDS011;14316;51.074;3.704;2023-02-19T05:32:22;14.63;;;3.25;;
26702;SDS011;14316;51.074;3.704;2023-02-19T05:34:49;13.90;;;3.15;;
26702;SDS011;14316;51.074;3.704;2023-02-19T05:37:15;18.35;;;3.47;;
26702;SDS011;14316;51.074;3.704;2023-02-19T05:39:41;16.88;;;3.25;;
26702;SDS011;14316;51.074;3.704;2023-02-19T05:42:07;8.82;;;2.72;;
26702;SDS011;14316;51.074;3.704;2023-02-19T05:44:33;14.77;;;3.25;;
26702;SDS011;14316;51.074;3.704;2023-02-19T05:46:59;12.75;;;2.42;;
26702;SDS011;14316;51.074;3.704;2023-02-19T05:49:24;16.05;;;3.55;;
26702;SDS011;14316;51.074;3.704;2023-02-19T05:51:50;11.90;;;2.78;;
26702;SDS011;14316;51.074;3.704;2023-02-19T05:54:17;10.52;;;2.90;;
26702;SDS011;14316;51.074;3.704;2023-02-19T05:56:44;13.00;;;2.60;;
26702;SDS011;14316;51.074;3.704;2023-02-19T05:59:23;10.65;;;3.03;;
26702;SDS011;14316;51.074;3.704;2023-02-19T06:01:51;12.23;;;2.90;;
26702;SDS011;14316;51.074;3.704;2023-02-19T06:04:18;12.75;;;2.40;;
26702;SDS011;14316;51.074;3.704;2023-02-19T06:06:47;17.65;;;3.35;;
26702;SDS011;14316;51.074;3.704;2023-02-19T06:09:13;10.95;;;3.22;;
26702;SDS011;14316;51.074;3.704;2023-02-19T06:11:39;14.05;;;3.20;;
26702;SDS011;14316;51.074;3.704;2023-02-19T06:14:07;13.63;;;3.50;;
26702;SDS011;14316;51.074;3.704;2023-02-19T06:16:34;12.45;;;2.80;;
26702;SDS011;14316;51.074;3.704;2023-02-19T06:19:01;16.13;;;3.58;;
26702;SDS011;14316;51.074;3.704;2023-02-19T06:21:28;13.55;;;3.33;;
26702;SDS011;14316;51.074;3.704;2023-02-19T06:23:54;13.82;;;3.65;;
26702;SDS011;14316;51.074;3.704;2023-02-19T06:26:23;13.63;;;3.33;;
26702;SDS011;14316;51.074;3.704;2023-02-19T06:28:50;10.98;;;2.80;;
26702;SDS011;14316;51.074;3.704;2023-02-19T06:31:18;13.00;;;2.90;;
26702;SDS011;14316;51.074;3.704;2023-02-19T06:33:45;14.25;;;3.40;;
26702;SDS011;14316;51.074;3.704;2023-02-19T06:36:16;9.50;;;2.92;;
26702;SDS011;14316;51.074;3.704;2023-02-19T06:38:43;13.67;;;2.87;;
26702;SDS011;14316;51.074;3.704;2023-02-19T06:41:09;10.63;;;2.85;;
26702;SDS011;14316;51.074;3.704;2023-02-19T06:43:36;12.93;;;2.88;;
26702;SDS011;14316;51.074;3.704;2023-02-19T06:46:03;15.18;;;3.13;;
26702;SDS011;14316;51.074;3.704;2023-02-19T06:48:30;14.38;;;2.78;;
26702;SDS011;14316;51.074;3.704;2023-02-19T06:50:57;14.02;;;3.40;;
26702;SDS011;14316;51.074;3.704;2023-02-19T06:53:23;12.38;;;2.97;;
26702;SDS011;14316;51.074;3.704;2023-02-19T06:58:23;13.05;;;3.25;;
26702;SDS011;14316;51.074;3.704;2023-02-19T07:00:49;11.60;;;3.38;;
26702;SDS011;14316;51.074;3.704;2023-02-19T07:03:14;16.60;;;3.58;;
26702;SDS011;14316;51.074;3.704;2023-02-19T07:05:40;13.75;;;2.90;;
26702;SDS011;14316;51.074;3.704;2023-02-19T07:08:07;14.43;;;3.25;;
26702;SDS011;14316;51.074;3.704;2023-02-19T07:10:34;12.45;;;3.78;;
26702;SDS011;14316;51.074;3.704;2023-02-19T07:12:59;19.00;;;3.72;;
26702;SDS011;14316;51.074;3.704;2023-02-19T07:15:25;10.13;;;3.08;;
26702;SDS011;14316;51.074;3.704;2023-02-19T07:17:51;13.57;;;4.28;;
26702;SDS011;14316;51.074;3.704;2023-02-19T07:20:16;14.90;;;3.53;;
26702;SDS011;14316;51.074;3.704;2023-02-19T07:22:42;10.60;;;1.95;;
26702;SDS011;14316;51.074;3.704;2023-02-19T07:25:08;17.08;;;3.55;;
26702;SDS011;14316;51.074;3.704;2023-02-19T07:27:33;17.52;;;3.95;;
26702;SDS011;14316;51.074;3.704;2023-02-19T07:29:59;15.40;;;3.55;;
26702;SDS011;14316;51.074;3.704;2023-02-19T07:32:26;9.93;;;2.88;;
26702;SDS011;14316;51.074;3.704;2023-02-19T07:34:51;9.27;;;3.33;;
26702;SDS011;14316;51.074;3.704;2023-02-19T07:37:17;15.77;;;4.85;;
26702;SDS011;14316;51.074;3.704;2023-02-19T07:39:43;13.05;;;3.20;;
26702;SDS011;14316;51.074;3.704;2023-02-19T07:42:09;16.30;;;3.75;;
26702;SDS011;14316;51.074;3.704;2023-02-19T07:44:35;12.98;;;2.90;;
26702;SDS011;14316;51.074;3.704;2023-02-19T07:47:01;12.18;;;3.03;;
26702;SDS011;14316;51.074;3.704;2023-02-19T07:49:27;15.82;;;3.42;;
26702;SDS011;14316;51.074;3.704;2023-02-19T07:51:52;12.98;;;3.58;;
26702;SDS011;14316;51.074;3.704;2023-02-19T07:54:18;14.27;;;3.60;;
26702;SDS011;14316;51.074;3.704;2023-02-19T07:56:44;14.27;;;3.20;;
26702;SDS011;14316;51.074;3.704;2023-02-19T07:59:11;10.57;;;3.03;;
26702;SDS011;14316;51.074;3.704;2023-02-19T08:01:36;15.10;;;3.35;;
26702;SDS011;14316;51.074;3.704;2023-02-19T08:04:20;13.90;;;3.22;;
26702;SDS011;14316;51.074;3.704;2023-02-19T08:06:46;11.68;;;3.33;;
26702;SDS011;14316;51.074;3.704;2023-02-19T08:09:12;12.73;;;2.92;;
26702;SDS011;14316;51.074;3.704;2023-02-19T08:11:38;15.02;;;3.42;;
26702;SDS011;14316;51.074;3.704;2023-02-19T08:14:26;11.57;;;2.85;;
26702;SDS011;14316;51.074;3.704;2023-02-19T08:16:52;10.82;;;3.17;;
26702;SDS011;14316;51.074;3.704;2023-02-19T08:19:18;11.43;;;3.45;;
26702;SDS011;14316;51.074;3.704;2023-02-19T08:21:45;14.60;;;3.15;;
26702;SDS011;14316;51.074;3.704;2023-02-19T08:24:11;15.02;;;3.45;;
26702;SDS011;14316;51.074;3.704;2023-02-19T08:26:37;10.48;;;2.95;;
26702;SDS011;14316;51.074;3.704;2023-02-19T08:29:03;14.50;;;3.20;;
26702;SDS011;14316;51.074;3.704;2023-02-19T08:31:30;12.10;;;3.40;;
26702;SDS011;14316;51.074;3.704;2023-02-19T08:33:56;10.43;;;3.65;;
26702;SDS011;14316;51.074;3.704;2023-02-19T08:36:23;10.07;;;3.17;;
26702;SDS011;14316;51.074;3.704;2023-02-19T08:38:49;9.73;;;2.63;;
26702;SDS011;14316;51.074;3.704;2023-02-19T08:41:15;5.80;;;2.22;;
26702;SDS011;14316;51.074;3.704;2023-02-19T08:43:41;8.27;;;2.95;;
26702;SDS011;14316;51.074;3.704;2023-02-19T08:46:08;8.93;;;3.17;;
26702;SDS011;14316;51.074;3.704;2023-02-19T08:48:38;9.65;;;2.55;;
26702;SDS011;14316;51.074;3.704;2023-02-19T08:51:05;9.15;;;2.60;;
26702;SDS011;14316;51.074;3.704;2023-02-19T08:53:32;12.10;;;3.50;;
26702;SDS011;14316;51.074;3.704;2023-02-19T08:56:04;13.38;;;3.90;;
26702;SDS011;14316;51.074;3.704;2023-02-19T08:58:38;11.30;;;3.10;;
26702;SDS011;14316;51.074;3.704;2023-02-19T09:01:14;12.85;;;3.15;;
26702;SDS011;14316;51.074;3.704;2023-02-19T09:03:42;13.65;;;3.50;;
26702;SDS011;14316;51.074;3.704;2023-02-19T09:06:15;11.50;;;3.08;;
26702;SDS011;14316;51.074;3.704;2023-02-19T09:08:42;6.50;;;2.33;;
26702;SDS011;14316;51.074;3.704;2023-02-19T09:11:08;8.07;;;2.78;;
26702;SDS011;14316;51.074;3.704;2023-02-19T09:13:34;9.25;;;2.60;;
26702;SDS011;14316;51.074;3.704;2023-02-19T09:16:01;11.00;;;2.67;;
26702;SDS011;14316;51.074;3.704;2023-02-19T09:18:31;10.23;;;2.87;;
26702;SDS011;14316;51.074;3.704;2023-02-19T09:21:00;13.35;;;3.22;;
26702;SDS011;14316;51.074;3.704;2023-02-19T09:23:33;9.20;;;2.47;;
26702;SDS011;14316;51.074;3.704;2023-02-19T09:26:02;12.38;;;3.08;;
26702;SDS011;14316;51.074;3.704;2023-02-19T09:28:33;10.52;;;3.97;;
26702;SDS011;14316;51.074;3.704;2023-02-19T09:31:05;11.50;;;3.30;;
26702;SDS011;14316;51.074;3.704;2023-02-19T09:33:32;8.43;;;2.50;;
26702;SDS011;14316;51.074;3.704;2023-02-19T09:35:58;10.77;;;3.25;;
26702;SDS011;14316;51.074;3.704;2023-02-19T09:38:25;10.63;;;2.88;;
26702;SDS011;14316;51.074;3.704;2023-02-19T09:40:51;12.00;;;3.22;;
26702;SDS011;14316;51.074;3.704;2023-02-19T09:43:18;10.98;;;3.13;;
26702;SDS011;14316;51.074;3.704;2023-02-19T09:45:47;12.52;;;3.20;;
26702;SDS011;14316;51.074;3.704;2023-02-19T09:48:18;10.15;;;2.97;;
26702;SDS011;14316;51.074;3.704;2023-02-19T09:50:44;10.20;;;3.15;;
26702;SDS011;14316;51.074;3.704;2023-02-19T09:53:20;10.40;;;3.20;;
26702;SDS011;14316;51.074;3.704;2023-02-19T09:55:52;8.70;;;2.85;;
26702;SDS011;14316;51.074;3.704;2023-02-19T09:58:32;8.93;;;3.08;;
26702;SDS011;14316;51.074;3.704;2023-02-19T10:01:11;12.75;;;3.70;;
26702;SDS011;14316;51.074;3.704;2023-02-19T10:03:38;15.57;;;3.97;;
26702;SDS011;14316;51.074;3.704;2023-02-19T10:06:13;8.43;;;2.83;;
26702;SDS011;14316;51.074;3.704;2023-02-19T10:08:59;10.38;;;3.38;;
26702;SDS011;14316;51.074;3.704;2023-02-19T10:11:50;7.75;;;2.92;;
26702;SDS011;14316;51.074;3.704;2023-02-19T10:14:18;12.52;;;3.67;;
26702;SDS011;14316;51.074;3.704;2023-02-19T10:17:06;11.85;;;3.25;;
26702;SDS011;14316;51.074;3.704;2023-02-19T10:19:47;8.70;;;3.53;;
26702;SDS011;14316;51.074;3.704;2023-02-19T10:22:13;10.18;;;4.15;;
26702;SDS011;14316;51.074;3.704;2023-02-19T10:24:39;13.10;;;4.40;;
26702;SDS011;14316;51.074;3.704;2023-02-19T10:27:11;9.25;;;3.53;;
26702;SDS011;14316;51.074;3.704;2023-02-19T10:29:39;9.45;;;3.47;;
26702;SDS011;14316;51.074;3.704;2023-02-19T10:32:18;9.80;;;3.70;;
26702;SDS011;14316;51.074;3.704;2023-02-19T10:35:05;11.48;;;3.47;;
26702;SDS011;14316;51.074;3.704;2023-02-19T10:37:46;7.07;;;3.33;;
26702;SDS011;14316;51.074;3.704;2023-02-19T10:40:15;7.82;;;3.40;;
26702;SDS011;14316;51.074;3.704;2023-02-19T10:42:47;10.70;;;3.60;;
26702;SDS011;14316;51.074;3.704;2023-02-19T10:48:34;6.50;;;3.13;;
26702;SDS011;14316;51.074;3.704;2023-02-19T10:51:09;9.68;;;3.05;;
26702;SDS011;14316;51.074;3.704;2023-02-19T10:53:49;9.10;;;3.75;;
26702;SDS011;14316;51.074;3.704;2023-02-19T10:56:26;8.10;;;2.92;;
26702;SDS011;14316;51.074;3.704;2023-02-19T10:58:59;4.82;;;2.88;;
26702;SDS011;14316;51.074;3.704;2023-02-19T11:01:38;4.80;;;2.70;;
26702;SDS011;14316;51.074;3.704;2023-02-19T11:04:17;9.48;;;3.40;;
26702;SDS011;14316;51.074;3.704;2023-02-19T11:06:44;8.38;;;3.90;;
26702;SDS011;14316;51.074;3.704;2023-02-19T11:09:44;12.75;;;3.53;;
26702;SDS011;14316;51.074;3.704;2023-02-19T11:12:04;11.27;;;3.22;;
26702;SDS011;14316;51.074;3.704;2023-02-19T11:14:31;8.48;;;2.90;;
26702;SDS011;14316;51.074;3.704;2023-02-19T11:16:59;7.65;;;2.20;;
26702;SDS011;14316;51.074;3.704;2023-02-19T11:19:37;7.72;;;2.17;;
26702;SDS011;14316;51.074;3.704;2023-02-19T11:24:51;5.65;;;2.10;;
26702;SDS011;14316;51.074;3.704;2023-02-19T11:27:21;6.63;;;2.70;;
26702;SDS011;14316;51.074;3.704;2023-02-19T11:29:48;5.90;;;2.80;;
26702;SDS011;14316;51.074;3.704;2023-02-19T11:32:26;8.32;;;2.80;;
26702;SDS011;14316;51.074;3.704;2023-02-19T11:35:12;7.13;;;2.40;;
26702;SDS011;14316;51.074;3.704;2023-02-19T11:37:55;5.97;;;2.20;;
26702;SDS011;14316;51.074;3.704;2023-02-19T11:40:47;8.20;;;3.15;;
26702;SDS011;14316;51.074;3.704;2023-02-19T11:43:13;5.97;;;2.50;;
26702;SDS011;14316;51.074;3.704;2023-02-19T11:48:53;4.72;;;2.60;;
26702;SDS011;14316;51.074;3.704;2023-02-19T12:00:04;6.43;;;2.75;;
26702;SDS011;14316;51.074;3.704;2023-02-19T12:11:17;6.90;;;3.00;;
26702;SDS011;14316;51.074;3.704;2023-02-19T12:22:28;7.72;;;2.60;;
26702;SDS011;14316;51.074;3.704;2023-02-19T12:28:05;5.47;;;2.63;;
26702;SDS011;14316;51.074;3.704;2023-02-19T12:41:49;8.55;;;2.72;;
26702;SDS011;14316;51.074;3.704;2023-02-19T12:44:30;7.82;;;2.58;;
26702;SDS011;14316;51.074;3.704;2023-02-19T12:47:14;6.22;;;2.33;;
26702;SDS011;14316;51.074;3.704;2023-02-19T12:49:54;5.78;;;3.25;;
26702;SDS011;14316;51.074;3.704;2023-02-19T12:52:30;4.68;;;2.33;;
26702;SDS011;14316;51.074;3.704;2023-02-19T12:55:06;5.40;;;2.72;;
26702;SDS011;14316;51.074;3.704;2023-02-19T12:57:45;5.75;;;3.00;;
26702;SDS011;14316;51.074;3.704;2023-02-19T13:00:18;6.35;;;2.65;;
26702;SDS011;14316;51.074;3.704;2023-02-19T13:05:52;5.00;;;2.75;;
26702;SDS011;14316;51.074;3.704;2023-02-19T13:08:28;5.18;;;2.60;;
26702;SDS011;14316;51.074;3.704;2023-02-19T13:13:39;5.35;;;2.90;;
26702;SDS011;14316;51.074;3.704;2023-02-19T13:16:20;5.05;;;2.83;;
26702;SDS011;14316;51.074;3.704;2023-02-19T13:21:25;6.45;;;3.00;;
26702;SDS011;14316;51.074;3.704;2023-02-19T13:24:15;6.45;;;2.92;;
26702;SDS011;14316;51.074;3.704;2023-02-19T13:37:51;6.65;;;3.53;;
26702;SDS011;14316;51.074;3.704;2023-02-19T13:40:38;7.00;;;3.92;;
26702;SDS011;14316;51.074;3.704;2023-02-19T13:43:52;6.40;;;3.75;;
26702;SDS011;14316;51.074;3.704;2023-02-19T13:46:11;5.32;;;3.78;;
26702;SDS011;14316;51.074;3.704;2023-02-19T13:48:40;7.03;;;4.07;;
26702;SDS011;14316;51.074;3.704;2023-02-19T14:30:39;11.60;;;5.13;;
26702;SDS011;14316;51.074;3.704;2023-02-19T14:33:10;10.32;;;4.25;;
26702;SDS011;14316;51.074;3.704;2023-02-19T14:35:43;6.22;;;5.10;;
26702;SDS011;14316;51.074;3.704;2023-02-19T14:38:19;6.90;;;4.78;;
26702;SDS011;14316;51.074;3.704;2023-02-19T14:40:48;9.13;;;4.25;;
26702;SDS011;14316;51.074;3.704;2023-02-19T14:43:15;7.57;;;4.60;;
26702;SDS011;14316;51.074;3.704;2023-02-19T14:45:44;8.25;;;4.53;;
26702;SDS011;14316;51.074;3.704;2023-02-19T14:48:18;10.63;;;5.13;;
26702;SDS011;14316;51.074;3.704;2023-02-19T14:50:51;7.50;;;5.20;;
26702;SDS011;14316;51.074;3.704;2023-02-19T14:53:22;7.32;;;4.22;;
26702;SDS011;14316;51.074;3.704;2023-02-19T14:55:49;9.43;;;5.03;;
26702;SDS011;14316;51.074;3.704;2023-02-19T14:58:37;9.30;;;4.63;;
26702;SDS011;14316;51.074;3.704;2023-02-19T15:01:04;11.00;;;4.70;;
26702;SDS011;14316;51.074;3.704;2023-02-19T15:03:34;10.82;;;4.82;;
26702;SDS011;14316;51.074;3.704;2023-02-19T15:08:36;9.80;;;5.30;;
26702;SDS011;14316;51.074;3.704;2023-02-19T15:11:07;8.85;;;5.07;;
26702;SDS011;14316;51.074;3.704;2023-02-19T15:13:46;7.32;;;5.20;;
26702;SDS011;14316;51.074;3.704;2023-02-19T15:16:16;7.65;;;5.10;;
26702;SDS011;14316;51.074;3.704;2023-02-19T15:18:44;8.88;;;4.93;;
26702;SDS011;14316;51.074;3.704;2023-02-19T15:21:20;8.00;;;5.13;;
26702;SDS011;14316;51.074;3.704;2023-02-19T15:23:50;10.95;;;5.10;;
26702;SDS011;14316;51.074;3.704;2023-02-19T15:26:20;9.55;;;5.40;;
26702;SDS011;14316;51.074;3.704;2023-02-19T15:28:59;7.43;;;5.30;;
26702;SDS011;14316;51.074;3.704;2023-02-19T15:31:27;7.25;;;4.93;;
26702;SDS011;14316;51.074;3.704;2023-02-19T15:33:56;7.32;;;5.10;;
26702;SDS011;14316;51.074;3.704;2023-02-19T15:36:26;8.98;;;4.70;;
26702;SDS011;14316;51.074;3.704;2023-02-19T15:38:58;11.73;;;5.38;;
26702;SDS011;14316;51.074;3.704;2023-02-19T15:41:31;10.15;;;5.22;;
26702;SDS011;14316;51.074;3.704;2023-02-19T15:46:35;10.20;;;5.43;;
26702;SDS011;14316;51.074;3.704;2023-02-19T15:49:06;8.15;;;4.88;;
26702;SDS011;14316;51.074;3.704;2023-02-19T15:51:40;9.07;;;5.20;;
26702;SDS011;14316;51.074;3.704;2023-02-19T15:54:22;10.93;;;5.10;;
26702;SDS011;14316;51.074;3.704;2023-02-19T15:57:11;8.88;;;4.13;;
26702;SDS011;14316;51.074;3.704;2023-02-19T15:59:53;8.02;;;4.10;;
26702;SDS011;14316;51.074;3.704;2023-02-19T16:02:28;5.75;;;4.00;;
26702;SDS011;14316;51.074;3.704;2023-02-19T16:04:54;8.18;;;3.95;;
26702;SDS011;14316;51.074;3.704;2023-02-19T16:07:27;7.07;;;3.63;;
26702;SDS011;14316;51.074;3.704;2023-02-19T16:12:42;8.20;;;4.15;;
26702;SDS011;14316;51.074;3.704;2023-02-19T16:15:12;10.10;;;3.95;;
26702;SDS011;14316;51.074;3.704;2023-02-19T16:17:41;6.30;;;4.00;;
26702;SDS011;14316;51.074;3.704;2023-02-19T16:20:15;7.88;;;4.30;;
26702;SDS011;14316;51.074;3.704;2023-02-19T16:22:51;8.85;;;4.65;;
26702;SDS011;14316;51.074;3.704;2023-02-19T16:25:32;6.75;;;4.35;;
26702;SDS011;14316;51.074;3.704;2023-02-19T16:28:18;7.47;;;4.45;;
26702;SDS011;14316;51.074;3.704;2023-02-19T16:30:56;11.00;;;4.53;;
26702;SDS011;14316;51.074;3.704;2023-02-19T16:36:15;7.93;;;4.60;;
26702;SDS011;14316;51.074;3.704;2023-02-19T16:44:29;8.10;;;4.57;;
26702;SDS011;14316;51.074;3.704;2023-02-19T16:47:04;8.48;;;4.50;;
26702;SDS011;14316;51.074;3.704;2023-02-19T16:49:30;8.15;;;4.15;;
26702;SDS011;14316;51.074;3.704;2023-02-19T16:51:57;8.60;;;4.22;;
26702;SDS011;14316;51.074;3.704;2023-02-19T16:54:26;6.00;;;4.18;;
26702;SDS011;14316;51.074;3.704;2023-02-19T16:56:51;7.32;;;4.40;;
26702;SDS011;14316;51.074;3.704;2023-02-19T16:59:18;6.82;;;4.50;;
26702;SDS011;14316;51.074;3.704;2023-02-19T17:01:44;6.70;;;4.20;;
26702;SDS011;14316;51.074;3.704;2023-02-19T17:04:16;7.85;;;4.07;;
26702;SDS011;14316;51.074;3.704;2023-02-19T17:06:42;8.65;;;3.95;;
26702;SDS011;14316;51.074;3.704;2023-02-19T17:09:08;5.43;;;3.97;;
26702;SDS011;14316;51.074;3.704;2023-02-19T17:11:35;5.25;;;3.83;;
26702;SDS011;14316;51.074;3.704;2023-02-19T17:14:00;8.82;;;4.30;;
26702;SDS011;14316;51.074;3.704;2023-02-19T17:16:27;6.20;;;3.97;;
26702;SDS011;14316;51.074;3.704;2023-02-19T17:21:56;8.23;;;5.10;;
26702;SDS011;14316;51.074;3.704;2023-02-19T17:24:22;5.85;;;4.18;;
26702;SDS011;14316;51.074;3.704;2023-02-19T17:26:48;9.90;;;4.68;;
26702;SDS011;14316;51.074;3.704;2023-02-19T17:29:14;5.05;;;4.35;;
26702;SDS011;14316;51.074;3.704;2023-02-19T17:31:42;7.03;;;5.10;;
26702;SDS011;14316;51.074;3.704;2023-02-19T17:34:08;8.75;;;4.90;;
26702;SDS011;14316;51.074;3.704;2023-02-19T17:36:35;8.57;;;4.90;;
26702;SDS011;14316;51.074;3.704;2023-02-19T17:39:02;6.68;;;4.97;;
26702;SDS011;14316;51.074;3.704;2023-02-19T17:41:30;8.48;;;4.82;;
26702;SDS011;14316;51.074;3.704;2023-02-19T17:43:56;10.73;;;5.43;;
26702;SDS011;14316;51.074;3.704;2023-02-19T17:46:23;9.25;;;5.82;;